createdAt,value
2019-01-05T00:00:16.385Z,1.62
2019-01-05T00:01:16.444Z,1.64
2019-01-05T00:02:16.709Z,1.67
2019-01-05T00:03:15.975Z,1.62
2019-01-05T00:04:16.244Z,1.64
2019-01-05T00:05:16.508Z,1.62
2019-01-05T00:06:15.770Z,1.61
2019-01-05T00:07:16.036Z,1.67
2019-01-05T00:08:16.310Z,1.64
2019-01-05T00:09:16.568Z,1.61
2019-01-05T00:10:15.833Z,1.65
2019-01-05T00:11:15.882Z,1.69
2019-01-05T00:12:16.139Z,1.69
2019-01-05T00:13:16.405Z,1.71
2019-01-05T00:14:16.681Z,1.71
2019-01-05T00:15:15.949Z,1.69
2019-01-05T00:16:16.215Z,1.75
2019-01-05T00:17:16.482Z,1.72
2019-01-05T00:18:15.744Z,1.75
2019-01-05T00:19:16.006Z,1.72
2019-01-05T00:20:16.286Z,1.69
2019-01-05T00:21:19.576Z,1.69
2019-01-05T00:22:16.031Z,1.71
2019-01-05T00:23:16.291Z,1.71
2019-01-05T00:24:16.554Z,1.68
2019-01-05T00:25:15.817Z,1.68
2019-01-05T00:26:16.084Z,1.68
2019-01-05T00:27:16.347Z,1.71
2019-01-05T00:28:16.607Z,1.64
2019-01-05T00:29:15.899Z,1.67
2019-01-05T00:30:16.199Z,1.68
2019-01-05T00:31:16.205Z,1.69
2019-01-05T00:32:16.477Z,1.71
2019-01-05T00:33:15.742Z,1.74
2019-01-05T00:34:16.003Z,1.71
2019-01-05T00:35:16.269Z,1.74
2019-01-05T00:36:16.528Z,1.75
2019-01-05T00:37:15.786Z,1.71
2019-01-05T00:38:16.050Z,1.75
2019-01-05T00:39:16.323Z,1.77
2019-01-05T00:40:17.067Z,1.77
2019-01-05T00:41:16.645Z,1.79
2019-01-05T00:42:15.912Z,1.79
2019-01-05T00:43:16.187Z,1.86
2019-01-05T00:44:15.833Z,1.85
2019-01-05T00:45:16.100Z,1.85
2019-01-05T00:46:16.361Z,1.79
2019-01-05T00:47:16.625Z,1.82
2019-01-05T00:48:15.893Z,1.81
2019-01-05T00:49:16.168Z,1.81
2019-01-05T00:50:16.457Z,1.81
2019-01-05T00:51:16.494Z,1.78
2019-01-05T00:52:15.763Z,1.82
2019-01-05T00:53:16.030Z,1.85
2019-01-05T00:54:16.300Z,1.88
2019-01-05T00:55:16.573Z,1.79
2019-01-05T00:56:15.842Z,1.78
2019-01-05T00:57:16.109Z,1.89
2019-01-05T00:58:16.376Z,1.82
2019-01-05T00:59:16.663Z,1.81
2019-01-05T01:00:15.926Z,1.83
2019-01-05T01:01:15.984Z,1.85
2019-01-05T01:02:16.241Z,1.83
2019-01-05T01:03:16.501Z,1.81
2019-01-05T01:04:15.761Z,1.75
2019-01-05T01:05:16.030Z,1.81
2019-01-05T01:06:16.300Z,1.78
2019-01-05T01:07:16.571Z,1.79
2019-01-05T01:08:15.831Z,1.79
2019-01-05T01:09:16.098Z,1.81
2019-01-05T01:10:16.360Z,1.78
2019-01-05T01:11:16.416Z,1.75
2019-01-05T01:12:16.675Z,1.77
2019-01-05T01:13:15.945Z,1.81
2019-01-05T01:14:16.209Z,1.78
2019-01-05T01:15:16.486Z,1.78
2019-01-05T01:16:15.750Z,1.79
2019-01-05T01:17:16.018Z,1.82
2019-01-05T01:18:16.283Z,1.82
2019-01-05T01:19:16.557Z,1.82
2019-01-05T01:20:15.831Z,1.81
2019-01-05T01:21:16.186Z,1.79
2019-01-05T01:22:16.448Z,1.81
2019-01-05T01:23:16.726Z,1.79
2019-01-05T01:24:15.987Z,1.77
2019-01-05T01:25:16.262Z,1.79
2019-01-05T01:26:16.535Z,1.79
2019-01-05T01:27:15.795Z,1.78
2019-01-05T01:28:16.053Z,1.75
2019-01-05T01:29:16.314Z,1.79
2019-01-05T01:30:16.610Z,1.79
2019-01-05T01:31:16.652Z,1.78
2019-01-05T01:32:15.917Z,1.82
2019-01-05T01:33:16.195Z,1.77
2019-01-05T01:34:16.477Z,1.81
2019-01-05T01:35:16.739Z,1.82
2019-01-05T01:36:16.002Z,1.77
2019-01-05T01:37:16.264Z,1.77
2019-01-05T01:38:16.532Z,1.78
2019-01-05T01:39:15.793Z,1.79
2019-01-05T01:40:16.062Z,1.77
2019-01-05T01:41:16.112Z,1.75
2019-01-05T01:42:16.381Z,1.75
2019-01-05T01:43:16.648Z,1.74
2019-01-05T01:44:15.908Z,1.72
2019-01-05T01:45:16.167Z,1.69
2019-01-05T01:46:16.422Z,1.77
2019-01-05T01:47:16.687Z,1.72
2019-01-05T01:48:15.942Z,1.71
2019-01-05T01:49:16.206Z,1.72
2019-01-05T01:50:16.483Z,1.77
2019-01-05T01:51:16.529Z,1.72
2019-01-05T01:52:15.788Z,1.71
2019-01-05T01:53:16.043Z,1.71
2019-01-05T01:54:16.302Z,1.74
2019-01-05T01:55:16.560Z,1.72
2019-01-05T01:56:15.817Z,1.69
2019-01-05T01:57:16.083Z,1.65
2019-01-05T01:58:16.338Z,1.68
2019-01-05T01:59:16.596Z,1.67
2019-01-05T02:00:15.860Z,1.65
2019-01-05T02:01:15.930Z,1.62
2019-01-05T02:02:16.207Z,1.64
2019-01-05T02:03:16.467Z,1.61
2019-01-05T02:04:15.781Z,1.60
2019-01-05T02:05:16.045Z,1.60
2019-01-05T02:06:16.306Z,1.61
2019-01-05T02:07:16.571Z,1.64
2019-01-05T02:08:15.838Z,1.60
2019-01-05T02:09:16.097Z,1.58
2019-01-05T02:10:16.368Z,1.57
2019-01-05T02:11:16.398Z,1.58
2019-01-05T02:12:16.663Z,1.65
2019-01-05T02:13:15.938Z,1.62
2019-01-05T02:14:16.207Z,1.62
2019-01-05T02:15:16.487Z,1.62
2019-01-05T02:16:15.746Z,1.64
2019-01-05T02:17:16.517Z,1.60
2019-01-05T02:18:15.771Z,1.58
2019-01-05T02:19:16.043Z,1.55
2019-01-05T02:20:16.321Z,1.55
2019-01-05T02:21:16.363Z,1.57
2019-01-05T02:22:16.824Z,1.57
2019-01-05T02:23:16.082Z,1.58
2019-01-05T02:24:16.354Z,1.54
2019-01-05T02:25:16.612Z,1.60
2019-01-05T02:26:15.874Z,1.58
2019-01-05T02:27:16.137Z,1.55
2019-01-05T02:28:16.406Z,1.55
2019-01-05T02:29:16.677Z,1.58
2019-01-05T02:30:15.963Z,1.65
2019-01-05T02:31:16.005Z,1.57
2019-01-05T02:32:16.280Z,1.60
2019-01-05T02:33:16.554Z,1.64
2019-01-05T02:34:16.062Z,1.65
2019-01-05T02:35:16.378Z,1.62
2019-01-05T02:36:16.653Z,1.65
2019-01-05T02:37:15.936Z,1.65
2019-01-05T02:38:16.191Z,1.65
2019-01-05T02:39:16.463Z,1.69
2019-01-05T02:40:16.729Z,1.65
2019-01-05T02:41:15.789Z,1.68
2019-01-05T02:42:16.056Z,1.72
2019-01-05T02:43:16.328Z,1.71
2019-01-05T02:44:16.596Z,1.74
2019-01-05T02:45:15.873Z,1.75
2019-01-05T02:46:16.151Z,1.75
2019-01-05T02:47:16.430Z,1.81
2019-01-05T02:48:16.963Z,1.75
2019-01-05T02:49:16.235Z,1.77
2019-01-05T02:50:16.513Z,1.74
2019-01-05T02:51:16.550Z,1.74
2019-01-05T02:52:15.820Z,1.75
2019-01-05T02:53:16.089Z,1.72
2019-01-05T02:54:16.364Z,1.69
2019-01-05T02:55:16.636Z,1.67
2019-01-05T02:56:15.901Z,1.67
2019-01-05T02:57:16.175Z,1.67
2019-01-05T02:58:16.438Z,1.68
2019-01-05T02:59:16.725Z,1.72
2019-01-05T03:00:16.001Z,1.72
2019-01-05T03:01:16.036Z,1.68
2019-01-05T03:02:16.315Z,1.69
2019-01-05T03:03:16.906Z,1.68
2019-01-05T03:04:16.195Z,1.67
2019-01-05T03:05:16.475Z,1.71
2019-01-05T03:06:15.755Z,1.69
2019-01-05T03:07:16.038Z,1.67
2019-01-05T03:08:16.306Z,1.69
2019-01-05T03:09:16.845Z,1.65
2019-01-05T03:10:16.112Z,1.64
2019-01-05T03:11:16.162Z,1.62
2019-01-05T03:12:16.429Z,1.62
2019-01-05T03:13:16.691Z,1.71
2019-01-05T03:14:16.224Z,1.65
2019-01-05T03:15:16.497Z,1.69
2019-01-05T03:16:15.756Z,1.65
2019-01-05T03:17:16.024Z,1.67
2019-01-05T03:18:16.290Z,1.67
2019-01-05T03:19:16.554Z,1.65
2019-01-05T03:20:15.827Z,1.58
2019-01-05T03:21:15.869Z,1.61
2019-01-05T03:22:16.136Z,1.57
2019-01-05T03:23:16.408Z,1.58
2019-01-05T03:24:16.703Z,1.58
2019-01-05T03:25:15.988Z,1.58
2019-01-05T03:26:16.247Z,1.58
2019-01-05T03:27:16.517Z,1.58
2019-01-05T03:28:15.775Z,1.64
2019-01-05T03:29:16.042Z,1.60
2019-01-05T03:30:16.343Z,1.65
2019-01-05T03:31:16.367Z,1.65
2019-01-05T03:32:16.556Z,1.65
2019-01-05T03:33:15.881Z,1.62
2019-01-05T03:34:16.166Z,1.60
2019-01-05T03:35:16.448Z,1.60
2019-01-05T03:36:16.728Z,1.57
2019-01-05T03:37:16.006Z,1.55
2019-01-05T03:38:16.284Z,1.57
2019-01-05T03:39:16.559Z,1.53
2019-01-05T03:40:15.834Z,1.47
2019-01-05T03:41:15.897Z,1.50
2019-01-05T03:42:16.170Z,1.53
2019-01-05T03:43:16.452Z,1.51
2019-01-05T03:44:16.732Z,1.51
2019-01-05T03:45:16.001Z,1.51
2019-01-05T03:46:16.280Z,1.48
2019-01-05T03:47:16.543Z,1.46
2019-01-05T03:48:15.814Z,1.53
2019-01-05T03:49:16.083Z,1.53
2019-01-05T03:50:16.354Z,1.53
2019-01-05T03:51:16.395Z,1.48
2019-01-05T03:52:16.679Z,1.50
2019-01-05T03:53:15.941Z,1.55
2019-01-05T03:54:16.213Z,1.51
2019-01-05T03:55:16.507Z,1.51
2019-01-05T03:56:15.773Z,1.48
2019-01-05T03:57:16.032Z,1.50
2019-01-05T03:58:16.309Z,1.50
2019-01-05T03:59:16.576Z,1.51
2019-01-05T04:00:15.857Z,1.55
2019-01-05T04:01:15.922Z,1.50
2019-01-05T04:02:16.190Z,1.50
2019-01-05T04:03:16.455Z,1.48
2019-01-05T04:04:15.764Z,1.51
2019-01-05T04:05:16.357Z,1.51
2019-01-05T04:06:16.615Z,1.51
2019-01-05T04:07:15.879Z,1.47
2019-01-05T04:08:16.153Z,1.50
2019-01-05T04:09:16.430Z,1.48
2019-01-05T04:10:16.713Z,1.47
2019-01-05T04:11:15.744Z,1.48
2019-01-05T04:12:16.014Z,1.44
2019-01-05T04:13:16.281Z,1.41
2019-01-05T04:14:16.545Z,1.41
2019-01-05T04:15:15.816Z,1.37
2019-01-05T04:16:16.080Z,1.36
2019-01-05T04:17:16.355Z,1.37
2019-01-05T04:18:16.617Z,1.33
2019-01-05T04:19:15.884Z,1.36
2019-01-05T04:20:16.184Z,1.37
2019-01-05T04:21:16.216Z,1.36
2019-01-05T04:22:16.489Z,1.26
2019-01-05T04:23:15.760Z,1.23
2019-01-05T04:24:16.031Z,1.24
2019-01-05T04:25:16.317Z,1.27
2019-01-05T04:26:16.583Z,1.24
2019-01-05T04:27:15.858Z,1.20
2019-01-05T04:28:16.124Z,1.12
2019-01-05T04:29:16.394Z,1.09
2019-01-05T04:30:16.669Z,1.06
2019-01-05T04:31:16.714Z,1.00
2019-01-05T04:32:15.972Z,1.09
2019-01-05T04:33:16.236Z,1.03
2019-01-05T04:34:16.547Z,0.99
2019-01-05T04:35:15.802Z,0.98
2019-01-05T04:36:16.070Z,0.95
2019-01-05T04:37:16.337Z,0.92
2019-01-05T04:38:16.591Z,0.89
2019-01-05T04:39:15.852Z,0.82
2019-01-05T04:40:16.137Z,0.79
2019-01-05T04:41:16.178Z,0.81
2019-01-05T04:42:16.500Z,0.81
2019-01-05T04:43:15.769Z,0.79
2019-01-05T04:44:16.046Z,0.74
2019-01-05T04:45:16.309Z,0.69
2019-01-05T04:46:16.584Z,0.65
2019-01-05T04:47:15.843Z,0.71
2019-01-05T04:48:16.126Z,0.76
2019-01-05T04:49:16.387Z,0.71
2019-01-05T04:50:16.771Z,0.68
2019-01-05T04:51:15.803Z,0.72
2019-01-05T04:52:16.071Z,0.74
2019-01-05T04:53:16.328Z,0.71
2019-01-05T04:54:16.585Z,0.69
2019-01-05T04:55:15.847Z,0.71
2019-01-05T04:56:16.116Z,0.69
2019-01-05T04:57:16.397Z,0.74
2019-01-05T04:58:16.667Z,0.72
2019-01-05T04:59:15.925Z,0.71
2019-01-05T05:00:16.193Z,0.67
2019-01-05T05:01:16.254Z,0.68
2019-01-05T05:02:16.515Z,0.81
2019-01-05T05:03:15.783Z,0.71
2019-01-05T05:04:16.037Z,0.68
2019-01-05T05:05:16.315Z,0.78
2019-01-05T05:06:16.585Z,0.74
2019-01-05T05:07:15.848Z,0.81
2019-01-05T05:08:16.115Z,0.78
2019-01-05T05:09:16.375Z,0.78
2019-01-05T05:10:16.645Z,0.78
2019-01-05T05:11:16.709Z,0.74
2019-01-05T05:12:15.971Z,0.78
2019-01-05T05:13:16.234Z,0.76
2019-01-05T05:14:16.513Z,0.79
2019-01-05T05:15:15.776Z,0.79
2019-01-05T05:16:16.037Z,0.79
2019-01-05T05:17:16.308Z,0.86
2019-01-05T05:18:16.570Z,0.86
2019-01-05T05:19:15.835Z,0.93
2019-01-05T05:20:16.106Z,0.89
2019-01-05T05:21:16.178Z,0.88
2019-01-05T05:22:16.450Z,0.86
2019-01-05T05:23:16.711Z,0.82
2019-01-05T05:24:15.975Z,0.82
2019-01-05T05:25:16.262Z,0.81
2019-01-05T05:26:16.542Z,0.83
2019-01-05T05:27:15.826Z,0.78
2019-01-05T05:28:16.087Z,0.76
2019-01-05T05:29:16.351Z,0.76
2019-01-05T05:30:17.247Z,0.72
2019-01-05T05:31:16.664Z,0.67
2019-01-05T05:32:15.954Z,0.67
2019-01-05T05:33:16.227Z,0.68
2019-01-05T05:34:16.490Z,0.64
2019-01-05T05:35:15.749Z,0.65
2019-01-05T05:36:16.288Z,0.72
2019-01-05T05:37:16.553Z,0.74
2019-01-05T05:38:15.814Z,0.68
2019-01-05T05:39:16.071Z,0.65
2019-01-05T05:40:16.375Z,0.65
2019-01-05T05:41:16.388Z,0.67
2019-01-05T05:42:16.658Z,0.67
2019-01-05T05:43:15.915Z,0.65
2019-01-05T05:44:16.184Z,0.67
2019-01-05T05:45:16.470Z,0.65
2019-01-05T05:46:15.746Z,0.69
2019-01-05T05:47:16.017Z,0.63
2019-01-05T05:48:16.285Z,0.68
2019-01-05T05:49:16.548Z,0.68
2019-01-05T05:50:15.814Z,0.61
2019-01-05T05:51:15.850Z,0.65
2019-01-05T05:52:16.161Z,0.63
2019-01-05T05:53:16.433Z,0.63
2019-01-05T05:54:16.703Z,0.64
2019-01-05T05:55:15.991Z,0.64
2019-01-05T05:56:16.276Z,0.67
2019-01-05T05:57:16.548Z,0.67
2019-01-05T05:58:15.805Z,0.68
2019-01-05T05:59:16.096Z,0.63
2019-01-05T06:00:16.360Z,0.64
2019-01-05T06:01:16.421Z,0.64
2019-01-05T06:02:16.684Z,0.63
2019-01-05T06:03:15.951Z,0.65
2019-01-05T06:04:16.528Z,0.63
2019-01-05T06:05:15.794Z,0.61
2019-01-05T06:06:16.053Z,0.60
2019-01-05T06:07:16.326Z,0.64
2019-01-05T06:08:16.587Z,0.60
2019-01-05T06:09:15.852Z,0.61
2019-01-05T06:10:16.122Z,0.61
2019-01-05T06:11:16.175Z,0.60
2019-01-05T06:12:16.438Z,0.64
2019-01-05T06:13:16.706Z,0.60
2019-01-05T06:14:15.981Z,0.64
2019-01-05T06:15:16.245Z,0.67
2019-01-05T06:16:16.510Z,0.61
2019-01-05T06:17:15.786Z,0.69
2019-01-05T06:18:16.067Z,0.64
2019-01-05T06:19:16.323Z,0.64
2019-01-05T06:20:16.605Z,0.64
2019-01-05T06:21:16.641Z,0.58
2019-01-05T06:22:15.904Z,0.67
2019-01-05T06:23:16.173Z,0.61
2019-01-05T06:24:16.436Z,0.57
2019-01-05T06:25:16.742Z,0.65
2019-01-05T06:26:16.017Z,0.63
2019-01-05T06:27:16.572Z,0.71
2019-01-05T06:28:15.831Z,0.71
2019-01-05T06:29:16.107Z,0.67
2019-01-05T06:30:16.384Z,0.68
2019-01-05T06:31:15.790Z,0.64
2019-01-05T06:32:16.049Z,0.63
2019-01-05T06:33:17.053Z,0.64
2019-01-05T06:34:16.362Z,0.69
2019-01-05T06:35:16.643Z,0.74
2019-01-05T06:36:15.915Z,0.84
2019-01-05T06:37:16.187Z,0.82
2019-01-05T06:38:16.455Z,0.81
2019-01-05T06:39:16.718Z,0.74
2019-01-05T06:40:15.988Z,0.74
2019-01-05T06:41:16.043Z,0.81
2019-01-05T06:42:16.307Z,0.76
2019-01-05T06:43:16.597Z,0.78
2019-01-05T06:44:15.846Z,0.75
2019-01-05T06:45:16.122Z,0.72
2019-01-05T06:46:16.383Z,0.72
2019-01-05T06:47:16.645Z,0.71
2019-01-05T06:48:15.918Z,0.64
2019-01-05T06:49:16.183Z,0.68
2019-01-05T06:50:16.467Z,0.64
2019-01-05T06:51:16.507Z,0.64
2019-01-05T06:52:15.788Z,0.67
2019-01-05T06:53:16.349Z,0.63
2019-01-05T06:54:16.626Z,0.67
2019-01-05T06:55:15.885Z,0.67
2019-01-05T06:56:16.149Z,0.71
2019-01-05T06:57:16.408Z,0.76
2019-01-05T06:58:16.674Z,0.78
2019-01-05T06:59:15.952Z,0.79
2019-01-05T07:00:16.223Z,0.81
2019-01-05T07:01:16.266Z,0.85
2019-01-05T07:02:16.530Z,0.83
2019-01-05T07:03:15.794Z,0.90
2019-01-05T07:04:16.067Z,0.78
2019-01-05T07:05:16.331Z,0.86
2019-01-05T07:06:16.608Z,0.88
2019-01-05T07:07:15.878Z,0.86
2019-01-05T07:08:16.134Z,0.98
2019-01-05T07:09:16.397Z,0.95
2019-01-05T07:10:16.667Z,0.95
2019-01-05T07:11:16.726Z,1.04
2019-01-05T07:12:15.998Z,1.04
2019-01-05T07:13:16.257Z,1.04
2019-01-05T07:14:16.518Z,1.06
2019-01-05T07:15:16.133Z,1.04
2019-01-05T07:16:16.391Z,1.04
2019-01-05T07:17:16.655Z,0.96
2019-01-05T07:18:15.891Z,0.99
2019-01-05T07:19:16.144Z,1.00
2019-01-05T07:20:16.438Z,1.02
2019-01-05T07:21:16.436Z,1.00
2019-01-05T07:22:16.699Z,0.99
2019-01-05T07:23:15.960Z,1.02
2019-01-05T07:24:16.234Z,1.07
2019-01-05T07:25:16.494Z,0.99
2019-01-05T07:26:15.755Z,1.03
2019-01-05T07:27:16.032Z,1.06
2019-01-05T07:28:16.294Z,1.10
2019-01-05T07:29:16.556Z,1.07
2019-01-05T07:30:15.879Z,0.98
2019-01-05T07:31:15.931Z,1.06
2019-01-05T07:32:16.198Z,1.07
2019-01-05T07:33:16.479Z,1.18
2019-01-05T07:34:15.744Z,1.13
2019-01-05T07:35:16.285Z,1.10
2019-01-05T07:36:16.555Z,1.18
2019-01-05T07:37:15.815Z,1.13
2019-01-05T07:38:16.098Z,1.10
2019-01-05T07:39:16.355Z,1.16
2019-01-05T07:40:16.628Z,1.19
2019-01-05T07:41:16.668Z,1.18
2019-01-05T07:42:15.940Z,1.18
2019-01-05T07:43:16.208Z,1.18
2019-01-05T07:44:16.464Z,1.09
2019-01-05T07:45:16.733Z,1.13
2019-01-05T07:46:15.972Z,1.13
2019-01-05T07:47:16.229Z,1.16
2019-01-05T07:48:16.501Z,1.15
2019-01-05T07:49:15.757Z,1.10
2019-01-05T07:50:16.029Z,1.12
2019-01-05T07:51:16.064Z,1.22
2019-01-05T07:52:16.341Z,1.16
2019-01-05T07:53:16.614Z,1.15
2019-01-05T07:54:15.918Z,1.15
2019-01-05T07:55:16.194Z,1.15
2019-01-05T07:56:16.460Z,1.13
2019-01-05T07:57:16.728Z,1.16
2019-01-05T07:58:15.992Z,1.23
2019-01-05T07:59:16.231Z,1.19
2019-01-05T08:00:16.508Z,1.20
2019-01-05T08:01:16.554Z,1.16
2019-01-05T08:02:15.829Z,1.24
2019-01-05T08:03:16.092Z,1.24
2019-01-05T08:04:16.363Z,1.23
2019-01-05T08:05:16.646Z,1.24
2019-01-05T08:06:16.020Z,1.22
2019-01-05T08:07:16.346Z,1.23
2019-01-05T08:08:16.609Z,1.19
2019-01-05T08:09:15.875Z,1.16
2019-01-05T08:10:16.146Z,1.15
2019-01-05T08:11:16.211Z,1.13
2019-01-05T08:12:16.447Z,1.18
2019-01-05T08:13:16.705Z,1.16
2019-01-05T08:14:15.969Z,1.20
2019-01-05T08:15:16.255Z,1.27
2019-01-05T08:16:16.523Z,1.24
2019-01-05T08:17:15.785Z,1.22
2019-01-05T08:18:16.049Z,1.23
2019-01-05T08:19:16.639Z,1.22
2019-01-05T08:20:15.916Z,1.20
2019-01-05T08:21:16.242Z,1.27
2019-01-05T08:22:16.485Z,1.26
2019-01-05T08:23:15.750Z,1.25
2019-01-05T08:24:16.011Z,1.24
2019-01-05T08:25:16.292Z,1.19
2019-01-05T08:26:16.555Z,1.18
2019-01-05T08:27:15.812Z,1.19
2019-01-05T08:28:16.076Z,1.22
2019-01-05T08:29:16.355Z,1.19
2019-01-05T08:30:16.646Z,1.22
2019-01-05T08:31:16.664Z,1.12
2019-01-05T08:32:15.928Z,1.13
2019-01-05T08:33:16.188Z,1.19
2019-01-05T08:34:16.461Z,1.16
2019-01-05T08:35:16.735Z,1.16
2019-01-05T08:36:15.992Z,1.12
2019-01-05T08:37:16.264Z,1.10
2019-01-05T08:38:16.540Z,1.19
2019-01-05T08:39:15.808Z,1.16
2019-01-05T08:40:16.070Z,1.20
2019-01-05T08:41:16.393Z,1.18
2019-01-05T08:42:16.660Z,1.13
2019-01-05T08:43:15.915Z,1.18
2019-01-05T08:44:16.185Z,1.22
2019-01-05T08:45:16.443Z,1.24
2019-01-05T08:46:16.721Z,1.23
2019-01-05T08:47:15.986Z,1.27
2019-01-05T08:48:16.240Z,1.31
2019-01-05T08:49:16.497Z,1.29
2019-01-05T08:50:15.785Z,1.30
2019-01-05T08:51:16.152Z,1.29
2019-01-05T08:52:16.417Z,1.31
2019-01-05T08:53:16.685Z,1.31
2019-01-05T08:54:15.946Z,1.30
2019-01-05T08:55:16.348Z,1.27
2019-01-05T08:56:16.652Z,1.23
2019-01-05T08:57:15.919Z,1.30
2019-01-05T08:58:16.181Z,1.30
2019-01-05T08:59:16.435Z,1.34
2019-01-05T09:00:16.715Z,1.34
2019-01-05T09:01:15.750Z,1.40
2019-01-05T09:02:16.074Z,1.37
2019-01-05T09:03:16.416Z,1.34
2019-01-05T09:04:16.681Z,1.37
2019-01-05T09:05:15.955Z,1.39
2019-01-05T09:06:16.216Z,1.34
2019-01-05T09:07:16.483Z,1.34
2019-01-05T09:08:15.749Z,1.42
2019-01-05T09:09:16.017Z,1.40
2019-01-05T09:10:16.280Z,1.43
2019-01-05T09:11:16.350Z,1.36
2019-01-05T09:12:16.620Z,1.43
2019-01-05T09:13:15.887Z,1.40
2019-01-05T09:14:16.158Z,1.37
2019-01-05T09:15:16.419Z,1.34
2019-01-05T09:16:16.708Z,1.37
2019-01-05T09:17:15.971Z,1.37
2019-01-05T09:18:16.235Z,1.40
2019-01-05T09:19:16.490Z,1.40
2019-01-05T09:20:15.768Z,1.40
2019-01-05T09:21:15.832Z,1.39
2019-01-05T09:22:16.101Z,1.34
2019-01-05T09:23:16.369Z,1.43
2019-01-05T09:24:16.635Z,1.41
2019-01-05T09:25:15.897Z,1.44
2019-01-05T09:26:16.164Z,1.36
2019-01-05T09:27:20.560Z,1.40
2019-01-05T09:28:16.049Z,1.45
2019-01-05T09:29:16.316Z,1.45
2019-01-05T09:30:16.639Z,1.47
2019-01-05T09:31:16.635Z,1.54
2019-01-05T09:32:15.919Z,1.54
2019-01-05T09:33:16.184Z,1.56
2019-01-05T09:34:16.454Z,1.54
2019-01-05T09:35:16.711Z,1.53
2019-01-05T09:36:15.979Z,1.54
2019-01-05T09:37:16.241Z,1.55
2019-01-05T09:38:16.501Z,1.56
2019-01-05T09:39:15.807Z,1.59
2019-01-05T09:40:16.071Z,1.59
2019-01-05T09:41:16.121Z,1.56
2019-01-05T09:42:16.389Z,1.54
2019-01-05T09:43:16.659Z,1.61
2019-01-05T09:44:15.923Z,1.55
2019-01-05T09:45:16.206Z,1.57
2019-01-05T09:46:16.473Z,1.66
2019-01-05T09:47:15.740Z,1.69
2019-01-05T09:48:15.999Z,1.71
2019-01-05T09:49:16.264Z,1.67
2019-01-05T09:50:16.542Z,1.69
2019-01-05T09:51:16.594Z,1.73
2019-01-05T09:52:15.862Z,1.72
2019-01-05T09:53:16.130Z,1.72
2019-01-05T09:54:16.398Z,1.72
2019-01-05T09:55:16.656Z,1.77
2019-01-05T09:56:15.911Z,1.75
2019-01-05T09:57:16.191Z,1.80
2019-01-05T09:58:16.450Z,1.84
2019-01-05T09:59:16.720Z,1.85
2019-01-05T10:00:16.010Z,1.85
2019-01-05T10:01:16.061Z,1.89
2019-01-05T10:02:16.330Z,1.81
2019-01-05T10:03:16.605Z,1.81
2019-01-05T10:04:15.877Z,1.79
2019-01-05T10:05:16.146Z,1.81
2019-01-05T10:06:16.400Z,1.82
2019-01-05T10:07:16.664Z,1.87
2019-01-05T10:08:15.945Z,1.89
2019-01-05T10:09:16.222Z,1.89
2019-01-05T10:10:16.490Z,1.86
2019-01-05T10:11:16.556Z,1.85
2019-01-05T10:12:15.814Z,1.89
2019-01-05T10:13:16.355Z,1.86
2019-01-05T10:14:16.623Z,1.89
2019-01-05T10:15:15.908Z,1.87
2019-01-05T10:16:16.181Z,1.89
2019-01-05T10:17:16.444Z,1.91
2019-01-05T10:18:16.722Z,1.92
2019-01-05T10:19:16.261Z,1.95
2019-01-05T10:20:16.531Z,1.92
2019-01-05T10:21:16.579Z,1.96
2019-01-05T10:22:15.836Z,1.97
2019-01-05T10:23:16.108Z,1.95
2019-01-05T10:24:16.378Z,1.93
2019-01-05T10:25:16.638Z,1.92
2019-01-05T10:26:15.901Z,1.96
2019-01-05T10:27:16.157Z,2.01
2019-01-05T10:28:16.424Z,1.94
2019-01-05T10:29:16.704Z,1.92
2019-01-05T10:30:15.979Z,1.90
2019-01-05T10:31:16.039Z,1.88
2019-01-05T10:32:16.298Z,1.88
2019-01-05T10:33:16.568Z,1.96
2019-01-05T10:34:15.832Z,1.97
2019-01-05T10:35:16.093Z,1.98
2019-01-05T10:36:16.357Z,1.95
2019-01-05T10:37:16.625Z,1.98
2019-01-05T10:38:15.884Z,1.93
2019-01-05T10:39:16.144Z,1.93
2019-01-05T10:40:16.412Z,1.95
2019-01-05T10:41:16.459Z,2.02
2019-01-05T10:42:16.726Z,1.99
2019-01-05T10:43:15.991Z,1.98
2019-01-05T10:44:16.255Z,1.93
2019-01-05T10:45:16.525Z,2.03
2019-01-05T10:46:15.785Z,2.07
2019-01-05T10:47:16.036Z,2.05
2019-01-05T10:48:16.310Z,1.95
2019-01-05T10:49:16.574Z,2.00
2019-01-05T10:50:15.842Z,2.03
2019-01-05T10:51:16.160Z,2.02
2019-01-05T10:52:16.425Z,2.00
2019-01-05T10:53:16.689Z,1.99
2019-01-05T10:54:15.945Z,2.00
2019-01-05T10:55:16.213Z,2.00
2019-01-05T10:56:16.485Z,2.00
2019-01-05T10:57:15.743Z,1.90
2019-01-05T10:58:16.049Z,1.95
2019-01-05T10:59:16.338Z,1.93
2019-01-05T11:00:16.611Z,1.99
2019-01-05T11:01:16.668Z,1.89
2019-01-05T11:02:15.935Z,1.89
2019-01-05T11:03:16.192Z,2.02
2019-01-05T11:04:16.457Z,1.99
2019-01-05T11:05:16.750Z,2.00
2019-01-05T11:06:16.030Z,1.96
2019-01-05T11:07:16.298Z,1.99
2019-01-05T11:08:16.558Z,2.00
2019-01-05T11:09:15.824Z,2.07
2019-01-05T11:10:16.103Z,1.95
2019-01-05T11:11:16.154Z,1.95
2019-01-05T11:12:16.420Z,2.02
2019-01-05T11:13:16.681Z,2.03
2019-01-05T11:14:15.953Z,2.06
2019-01-05T11:15:16.222Z,2.10
2019-01-05T11:16:16.487Z,2.09
2019-01-05T11:17:15.743Z,2.00
2019-01-05T11:18:16.000Z,2.05
2019-01-05T11:19:16.262Z,2.10
2019-01-05T11:20:16.548Z,2.13
2019-01-05T11:21:16.591Z,2.09
2019-01-05T11:22:15.866Z,2.13
2019-01-05T11:23:16.125Z,2.07
2019-01-05T11:24:16.400Z,2.09
2019-01-05T11:25:16.671Z,2.12
2019-01-05T11:26:15.949Z,2.12
2019-01-05T11:27:16.215Z,2.07
2019-01-05T11:28:16.495Z,2.17
2019-01-05T11:29:15.750Z,2.16
2019-01-05T11:30:16.819Z,2.14
2019-01-05T11:31:16.074Z,2.13
2019-01-05T11:32:16.350Z,2.17
2019-01-05T11:33:16.637Z,2.16
2019-01-05T11:34:15.904Z,2.16
2019-01-05T11:35:16.192Z,2.17
2019-01-05T11:36:16.454Z,2.12
2019-01-05T11:37:16.724Z,2.19
2019-01-05T11:38:15.983Z,2.21
2019-01-05T11:39:16.244Z,2.21
2019-01-05T11:40:16.508Z,2.20
2019-01-05T11:41:16.552Z,2.22
2019-01-05T11:42:15.825Z,2.21
2019-01-05T11:43:16.098Z,2.23
2019-01-05T11:44:16.374Z,2.21
2019-01-05T11:45:16.640Z,2.26
2019-01-05T11:46:15.948Z,2.26
2019-01-05T11:47:16.212Z,2.27
2019-01-05T11:48:16.495Z,2.27
2019-01-05T11:49:15.769Z,2.28
2019-01-05T11:50:16.049Z,2.29
2019-01-05T11:51:16.102Z,2.30
2019-01-05T11:52:16.371Z,2.32
2019-01-05T11:53:16.647Z,2.30
2019-01-05T11:54:16.230Z,2.32
2019-01-05T11:55:16.508Z,2.33
2019-01-05T11:56:15.769Z,2.37
2019-01-05T11:57:16.027Z,2.36
2019-01-05T11:58:16.328Z,2.34
2019-01-05T11:59:16.604Z,2.37
2019-01-05T12:00:15.882Z,2.37
2019-01-05T12:01:15.919Z,2.36
2019-01-05T12:02:19.573Z,2.37
2019-01-05T12:03:16.062Z,2.39
2019-01-05T12:04:16.350Z,2.39
2019-01-05T12:05:16.650Z,2.43
2019-01-05T12:06:15.991Z,2.27
2019-01-05T12:07:16.270Z,2.38
2019-01-05T12:08:16.565Z,2.43
2019-01-05T12:09:15.823Z,2.43
2019-01-05T12:10:16.106Z,2.43
2019-01-05T12:11:16.169Z,2.44
2019-01-05T12:12:16.449Z,2.47
2019-01-05T12:13:16.717Z,2.51
2019-01-05T12:14:15.976Z,2.54
2019-01-05T12:15:16.250Z,2.53
2019-01-05T12:16:16.519Z,2.51
2019-01-05T12:17:15.779Z,2.54
2019-01-05T12:18:16.042Z,2.57
2019-01-05T12:19:16.303Z,2.59
2019-01-05T12:20:16.585Z,2.59
2019-01-05T12:21:16.626Z,2.61
2019-01-05T12:22:15.895Z,2.64
2019-01-05T12:23:16.162Z,2.64
2019-01-05T12:24:16.423Z,2.64
2019-01-05T12:25:16.686Z,2.64
2019-01-05T12:26:15.954Z,2.71
2019-01-05T12:27:16.223Z,2.72
2019-01-05T12:28:16.514Z,2.74
2019-01-05T12:29:15.786Z,2.75
2019-01-05T12:30:16.069Z,2.74
2019-01-05T12:31:16.123Z,2.75
2019-01-05T12:32:16.389Z,2.76
2019-01-05T12:33:16.696Z,2.82
2019-01-05T12:34:15.968Z,2.84
2019-01-05T12:35:16.230Z,2.91
2019-01-05T12:36:16.505Z,2.88
2019-01-05T12:37:15.778Z,2.91
2019-01-05T12:38:16.050Z,2.95
2019-01-05T12:39:16.315Z,2.99
2019-01-05T12:40:16.585Z,2.96
2019-01-05T12:41:16.621Z,3.02
2019-01-05T12:42:15.882Z,3.02
2019-01-05T12:43:16.156Z,3.03
2019-01-05T12:44:16.446Z,3.00
2019-01-05T12:45:16.710Z,3.03
2019-01-05T12:46:15.970Z,3.05
2019-01-05T12:47:16.233Z,3.09
2019-01-05T12:48:16.508Z,3.10
2019-01-05T12:49:15.774Z,3.10
2019-01-05T12:50:16.055Z,3.12
2019-01-05T12:51:16.114Z,3.10
2019-01-05T12:52:16.381Z,3.12
2019-01-05T12:53:16.653Z,3.13
2019-01-05T12:54:16.181Z,3.17
2019-01-05T12:55:16.451Z,3.19
2019-01-05T12:56:16.715Z,3.17
2019-01-05T12:57:15.977Z,3.10
2019-01-05T12:58:16.255Z,3.14
2019-01-05T12:59:16.528Z,3.13
2019-01-05T13:00:15.789Z,3.13
2019-01-05T13:01:15.854Z,3.16
2019-01-05T13:02:16.120Z,3.16
2019-01-05T13:03:16.391Z,3.16
2019-01-05T13:04:16.664Z,3.12
2019-01-05T13:05:15.940Z,3.06
2019-01-05T13:06:16.202Z,3.14
2019-01-05T13:07:16.464Z,3.16
2019-01-05T13:08:15.739Z,3.22
2019-01-05T13:09:16.005Z,3.24
2019-01-05T13:10:16.281Z,3.22
2019-01-05T13:11:16.329Z,3.23
2019-01-05T13:12:16.587Z,3.26
2019-01-05T13:13:15.855Z,3.24
2019-01-05T13:14:16.119Z,3.24
2019-01-05T13:15:16.395Z,3.22
2019-01-05T13:16:16.657Z,3.22
2019-01-05T13:17:15.934Z,3.20
2019-01-05T13:18:16.202Z,3.22